sensor_id;sensor_type;location;lat;lon;timestamp;P1;durP1;ratioP1;P2;durP2;ratioP2
11211;SDS011;5663;50.864;12.096;2022-09-09T01:40:43;2.30;;;1.93;;
11211;SDS011;5663;50.864;12.096;2022-09-09T01:43:15;11.47;;;2.60;;
11211;SDS011;5663;50.864;12.096;2022-09-09T01:46:00;6.23;;;1.87;;
11211;SDS011;5663;50.864;12.096;2022-09-09T01:48:44;5.67;;;2.30;;
11211;SDS011;5663;50.864;12.096;2022-09-09T01:51:22;8.07;;;2.30;;
11211;SDS011;5663;50.864;12.096;2022-09-09T01:53:53;4.40;;;2.10;;
11211;SDS011;5663;50.864;12.096;2022-09-09T01:59:39;5.07;;;2.20;;
11211;SDS011;5663;50.864;12.096;2022-09-09T02:02:32;3.43;;;2.10;;
11211;SDS011;5663;50.864;12.096;2022-09-09T02:05:17;2.70;;;2.20;;
11211;SDS011;5663;50.864;12.096;2022-09-09T02:08:00;4.20;;;2.10;;
11211;SDS011;5663;50.864;12.096;2022-09-09T02:10:39;4.13;;;2.17;;
11211;SDS011;5663;50.864;12.096;2022-09-09T02:13:27;11.00;;;2.33;;
11211;SDS011;5663;50.864;12.096;2022-09-09T02:16:08;11.20;;;2.57;;
11211;SDS011;5663;50.864;12.096;2022-09-09T02:18:47;4.93;;;2.47;;
11211;SDS011;5663;50.864;12.096;2022-09-09T02:21:33;5.00;;;2.13;;
11211;SDS011;5663;50.864;12.096;2022-09-09T02:24:08;3.10;;;2.10;;
11211;SDS011;5663;50.864;12.096;2022-09-09T02:26:39;3.67;;;2.20;;
11211;SDS011;5663;50.864;12.096;2022-09-09T02:29:14;2.93;;;1.83;;
11211;SDS011;5663;50.864;12.096;2022-09-09T02:31:49;3.67;;;2.10;;
11211;SDS011;5663;50.864;12.096;2022-09-09T02:34:22;10.70;;;2.47;;
11211;SDS011;5663;50.864;12.096;2022-09-09T02:37:11;4.03;;;1.90;;
11211;SDS011;5663;50.864;12.096;2022-09-09T02:39:50;4.20;;;1.83;;
11211;SDS011;5663;50.864;12.096;2022-09-09T02:42:39;5.70;;;2.33;;
11211;SDS011;5663;50.864;12.096;2022-09-09T02:45:17;3.47;;;1.90;;
11211;SDS011;5663;50.864;12.096;2022-09-09T02:48:02;6.43;;;2.30;;
11211;SDS011;5663;50.864;12.096;2022-09-09T02:51:00;11.30;;;2.50;;
11211;SDS011;5663;50.864;12.096;2022-09-09T02:54:03;6.53;;;2.60;;
11211;SDS011;5663;50.864;12.096;2022-09-09T02:56:47;5.40;;;2.27;;
11211;SDS011;5663;50.864;12.096;2022-09-09T02:59:34;2.40;;;1.97;;
11211;SDS011;5663;50.864;12.096;2022-09-09T03:02:17;2.80;;;2.00;;
11211;SDS011;5663;50.864;12.096;2022-09-09T03:04:48;4.37;;;2.33;;
11211;SDS011;5663;50.864;12.096;2022-09-09T03:07:28;6.80;;;2.23;;
11211;SDS011;5663;50.864;12.096;2022-09-09T03:10:14;4.10;;;2.20;;
11211;SDS011;5663;50.864;12.096;2022-09-09T03:12:49;4.10;;;2.40;;
11211;SDS011;5663;50.864;12.096;2022-09-09T03:15:21;5.13;;;2.60;;
11211;SDS011;5663;50.864;12.096;2022-09-09T03:18:06;3.30;;;2.30;;
11211;SDS011;5663;50.864;12.096;2022-09-09T03:20:45;8.63;;;2.30;;
11211;SDS011;5663;50.864;12.096;2022-09-09T03:23:18;4.30;;;2.30;;
11211;SDS011;5663;50.864;12.096;2022-09-09T03:25:55;2.53;;;1.77;;
11211;SDS011;5663;50.864;12.096;2022-09-09T03:28:32;5.23;;;2.10;;
11211;SDS011;5663;50.864;12.096;2022-09-09T03:31:07;5.67;;;2.50;;
11211;SDS011;5663;50.864;12.096;2022-09-09T03:33:47;7.77;;;2.27;;
11211;SDS011;5663;50.864;12.096;2022-09-09T03:36:53;2.10;;;1.73;;
11211;SDS011;5663;50.864;12.096;2022-09-09T03:39:25;5.87;;;2.13;;
11211;SDS011;5663;50.864;12.096;2022-09-09T03:41:57;8.73;;;2.20;;
11211;SDS011;5663;50.864;12.096;2022-09-09T03:44:31;4.60;;;2.00;;
11211;SDS011;5663;50.864;12.096;2022-09-09T03:47:11;5.17;;;2.03;;
11211;SDS011;5663;50.864;12.096;2022-09-09T03:49:44;3.23;;;2.00;;
11211;SDS011;5663;50.864;12.096;2022-09-09T03:52:19;2.60;;;2.10;;
11211;SDS011;5663;50.864;12.096;2022-09-09T03:54:50;3.30;;;1.90;;
11211;SDS011;5663;50.864;12.096;2022-09-09T03:57:23;2.70;;;1.80;;
11211;SDS011;5663;50.864;12.096;2022-09-09T04:00:06;5.43;;;2.10;;
11211;SDS011;5663;50.864;12.096;2022-09-09T04:02:39;3.57;;;2.00;;
11211;SDS011;5663;50.864;12.096;2022-09-09T04:05:13;7.50;;;2.00;;
11211;SDS011;5663;50.864;12.096;2022-09-09T04:07:42;4.47;;;2.10;;
11211;SDS011;5663;50.864;12.096;2022-09-09T04:10:15;4.40;;;2.13;;
11211;SDS011;5663;50.864;12.096;2022-09-09T04:12:54;5.77;;;2.30;;
11211;SDS011;5663;50.864;12.096;2022-09-09T04:15:30;7.80;;;2.40;;
11211;SDS011;5663;50.864;12.096;2022-09-09T04:18:07;5.93;;;2.30;;
11211;SDS011;5663;50.864;12.096;2022-09-09T04:20:41;4.07;;;1.70;;
11211;SDS011;5663;50.864;12.096;2022-09-09T04:23:27;3.10;;;1.83;;
11211;SDS011;5663;50.864;12.096;2022-09-09T04:26:07;8.20;;;2.07;;
11211;SDS011;5663;50.864;12.096;2022-09-09T04:28:50;4.87;;;2.17;;
11211;SDS011;5663;50.864;12.096;2022-09-09T04:31:46;4.00;;;2.40;;
11211;SDS011;5663;50.864;12.096;2022-09-09T04:34:22;6.13;;;2.00;;
11211;SDS011;5663;50.864;12.096;2022-09-09T04:37:14;2.73;;;1.83;;
11211;SDS011;5663;50.864;12.096;2022-09-09T04:39:49;3.83;;;1.90;;
11211;SDS011;5663;50.864;12.096;2022-09-09T04:42:19;4.10;;;1.90;;
11211;SDS011;5663;50.864;12.096;2022-09-09T04:44:53;4.27;;;2.43;;
11211;SDS011;5663;50.864;12.096;2022-09-09T04:47:24;3.27;;;2.10;;
11211;SDS011;5663;50.864;12.096;2022-09-09T04:49:56;3.63;;;1.57;;
11211;SDS011;5663;50.864;12.096;2022-09-09T04:52:54;2.90;;;1.73;;
11211;SDS011;5663;50.864;12.096;2022-09-09T04:58:52;2.87;;;2.00;;
11211;SDS011;5663;50.864;12.096;2022-09-09T05:01:36;2.80;;;1.70;;
11211;SDS011;5663;50.864;12.096;2022-09-09T05:04:19;6.53;;;2.20;;
11211;SDS011;5663;50.864;12.096;2022-09-09T05:07:10;5.03;;;2.23;;
11211;SDS011;5663;50.864;12.096;2022-09-09T05:09:49;1.90;;;1.80;;
11211;SDS011;5663;50.864;12.096;2022-09-09T05:17:09;4.70;;;2.00;;
11211;SDS011;5663;50.864;12.096;2022-09-09T05:23:59;4.20;;;2.10;;
11211;SDS011;5663;50.864;12.096;2022-09-09T05:30:56;5.40;;;1.90;;
11211;SDS011;5663;50.864;12.096;2022-09-09T05:33:44;4.33;;;1.90;;
11211;SDS011;5663;50.864;12.096;2022-09-09T05:36:27;3.60;;;2.10;;
11211;SDS011;5663;50.864;12.096;2022-09-09T05:39:28;5.37;;;2.27;;
11211;SDS011;5663;50.864;12.096;2022-09-09T05:42:30;3.70;;;1.93;;
11211;SDS011;5663;50.864;12.096;2022-09-09T05:45:41;7.20;;;2.00;;
11211;SDS011;5663;50.864;12.096;2022-09-09T05:48:20;4.33;;;2.10;;
11211;SDS011;5663;50.864;12.096;2022-09-09T05:51:01;4.23;;;2.00;;
11211;SDS011;5663;50.864;12.096;2022-09-09T05:53:40;3.80;;;2.10;;
11211;SDS011;5663;50.864;12.096;2022-09-09T05:56:28;5.67;;;2.40;;
11211;SDS011;5663;50.864;12.096;2022-09-09T05:59:10;4.90;;;2.60;;
11211;SDS011;5663;50.864;12.096;2022-09-09T06:06:11;2.37;;;1.93;;
11211;SDS011;5663;50.864;12.096;2022-09-09T06:08:59;2.20;;;1.80;;
11211;SDS011;5663;50.864;12.096;2022-09-09T06:12:07;4.40;;;1.90;;
11211;SDS011;5663;50.864;12.096;2022-09-09T06:15:08;3.73;;;1.70;;
11211;SDS011;5663;50.864;12.096;2022-09-09T06:18:15;4.40;;;2.37;;
11211;SDS011;5663;50.864;12.096;2022-09-09T06:24:28;4.40;;;2.07;;
11211;SDS011;5663;50.864;12.096;2022-09-09T06:27:03;4.20;;;1.90;;
11211;SDS011;5663;50.864;12.096;2022-09-09T06:37:09;4.13;;;2.33;;
11211;SDS011;5663;50.864;12.096;2022-09-09T06:43:07;8.13;;;2.27;;
11211;SDS011;5663;50.864;12.096;2022-09-09T07:51:15;4.73;;;2.53;;
11211;SDS011;5663;50.864;12.096;2022-09-09T07:54:15;3.47;;;2.00;;
11211;SDS011;5663;50.864;12.096;2022-09-09T07:57:41;5.97;;;2.30;;
11211;SDS011;5663;50.864;12.096;2022-09-09T08:00:51;2.67;;;1.97;;
11211;SDS011;5663;50.864;12.096;2022-09-09T08:04:25;3.03;;;1.67;;
11211;SDS011;5663;50.864;12.096;2022-09-09T08:08:14;5.33;;;2.07;;
11211;SDS011;5663;50.864;12.096;2022-09-09T08:10:51;6.07;;;2.00;;
11211;SDS011;5663;50.864;12.096;2022-09-09T08:13:58;4.23;;;2.00;;
11211;SDS011;5663;50.864;12.096;2022-09-09T08:16:49;7.30;;;2.30;;
11211;SDS011;5663;50.864;12.096;2022-09-09T08:19:42;4.30;;;2.20;;
11211;SDS011;5663;50.864;12.096;2022-09-09T08:22:23;9.60;;;2.37;;
11211;SDS011;5663;50.864;12.096;2022-09-09T08:24:54;7.03;;;2.40;;
11211;SDS011;5663;50.864;12.096;2022-09-09T08:27:28;6.90;;;2.10;;
11211;SDS011;5663;50.864;12.096;2022-09-09T08:30:21;3.63;;;1.80;;
11211;SDS011;5663;50.864;12.096;2022-09-09T08:34:03;11.07;;;2.13;;
11211;SDS011;5663;50.864;12.096;2022-09-09T08:45:09;4.47;;;2.00;;
11211;SDS011;5663;50.864;12.096;2022-09-09T08:55:39;2.90;;;1.70;;
11211;SDS011;5663;50.864;12.096;2022-09-09T09:06:09;3.47;;;1.40;;
11211;SDS011;5663;50.864;12.096;2022-09-09T09:09:38;8.57;;;1.77;;
11211;SDS011;5663;50.864;12.096;2022-09-09T09:12:35;4.97;;;1.63;;
11211;SDS011;5663;50.864;12.096;2022-09-09T09:15:41;4.13;;;1.80;;
11211;SDS011;5663;50.864;12.096;2022-09-09T09:18:54;4.87;;;1.70;;
11211;SDS011;5663;50.864;12.096;2022-09-09T09:21:52;4.43;;;1.90;;
11211;SDS011;5663;50.864;12.096;2022-09-09T09:24:34;4.33;;;2.20;;
11211;SDS011;5663;50.864;12.096;2022-09-09T09:31:10;4.17;;;1.80;;
11211;SDS011;5663;50.864;12.096;2022-09-09T09:34:18;4.47;;;1.70;;
11211;SDS011;5663;50.864;12.096;2022-09-09T09:37:02;11.17;;;1.90;;
11211;SDS011;5663;50.864;12.096;2022-09-09T09:40:10;2.87;;;1.07;;
11211;SDS011;5663;50.864;12.096;2022-09-09T09:42:51;3.80;;;1.40;;
11211;SDS011;5663;50.864;12.096;2022-09-09T09:45:28;6.23;;;1.47;;
11211;SDS011;5663;50.864;12.096;2022-09-09T09:48:08;3.10;;;1.40;;
11211;SDS011;5663;50.864;12.096;2022-09-09T09:50:51;6.10;;;1.40;;
11211;SDS011;5663;50.864;12.096;2022-09-09T09:56:46;2.35;;;1.23;;
11211;SDS011;5663;50.864;12.096;2022-09-09T10:02:23;2.83;;;1.60;;
11211;SDS011;5663;50.864;12.096;2022-09-09T10:05:37;4.82;;;2.35;;
11211;SDS011;5663;50.864;12.096;2022-09-09T10:08:34;10.30;;;3.53;;
11211;SDS011;5663;50.864;12.096;2022-09-09T10:11:26;5.35;;;2.50;;
11211;SDS011;5663;50.864;12.096;2022-09-09T10:14:11;6.93;;;2.88;;
11211;SDS011;5663;50.864;12.096;2022-09-09T10:16:54;6.78;;;3.10;;
11211;SDS011;5663;50.864;12.096;2022-09-09T10:19:41;4.93;;;2.75;;
11211;SDS011;5663;50.864;12.096;2022-09-09T10:22:25;7.95;;;3.00;;
11211;SDS011;5663;50.864;12.096;2022-09-09T10:28:10;4.82;;;1.98;;
11211;SDS011;5663;50.864;12.096;2022-09-09T10:31:03;3.47;;;1.27;;
11211;SDS011;5663;50.864;12.096;2022-09-09T10:33:48;4.45;;;1.40;;
11211;SDS011;5663;50.864;12.096;2022-09-09T10:36:27;8.27;;;1.90;;
11211;SDS011;5663;50.864;12.096;2022-09-09T10:38:59;3.95;;;1.67;;
11211;SDS011;5663;50.864;12.096;2022-09-09T10:41:58;13.75;;;1.90;;
11211;SDS011;5663;50.864;12.096;2022-09-09T10:47:47;6.22;;;1.70;;
11211;SDS011;5663;50.864;12.096;2022-09-09T10:50:54;4.22;;;1.50;;
11211;SDS011;5663;50.864;12.096;2022-09-09T10:53:36;3.75;;;1.52;;
11211;SDS011;5663;50.864;12.096;2022-09-09T10:56:23;3.78;;;1.70;;
11211;SDS011;5663;50.864;12.096;2022-09-09T10:58:58;5.03;;;2.00;;
11211;SDS011;5663;50.864;12.096;2022-09-09T11:01:39;3.58;;;1.70;;
11211;SDS011;5663;50.864;12.096;2022-09-09T11:04:24;6.32;;;1.55;;
11211;SDS011;5663;50.864;12.096;2022-09-09T11:07:29;3.53;;;1.40;;
11211;SDS011;5663;50.864;12.096;2022-09-09T11:10:28;5.22;;;1.50;;
11211;SDS011;5663;50.864;12.096;2022-09-09T11:13:24;4.25;;;1.52;;
11211;SDS011;5663;50.864;12.096;2022-09-09T11:16:24;6.55;;;1.70;;
11211;SDS011;5663;50.864;12.096;2022-09-09T11:22:58;4.55;;;2.15;;
11211;SDS011;5663;50.864;12.096;2022-09-09T11:25:59;6.15;;;1.40;;
11211;SDS011;5663;50.864;12.096;2022-09-09T11:32:38;4.18;;;1.52;;
11211;SDS011;5663;50.864;12.096;2022-09-09T11:35:40;4.60;;;1.50;;
11211;SDS011;5663;50.864;12.096;2022-09-09T11:42:44;3.47;;;1.67;;
11211;SDS011;5663;50.864;12.096;2022-09-09T11:45:32;2.97;;;1.30;;
11211;SDS011;5663;50.864;12.096;2022-09-09T11:48:23;4.60;;;1.40;;
11211;SDS011;5663;50.864;12.096;2022-09-09T11:51:25;3.13;;;1.30;;
11211;SDS011;5663;50.864;12.096;2022-09-09T11:53:58;4.68;;;1.50;;
11211;SDS011;5663;50.864;12.096;2022-09-09T11:56:34;3.00;;;1.33;;
11211;SDS011;5663;50.864;12.096;2022-09-09T12:06:20;1.35;;;1.00;;
11211;SDS011;5663;50.864;12.096;2022-09-09T12:10:20;2.60;;;1.00;;
11211;SDS011;5663;50.864;12.096;2022-09-09T12:17:21;2.58;;;1.48;;
11211;SDS011;5663;50.864;12.096;2022-09-09T12:20:11;2.83;;;1.30;;
11211;SDS011;5663;50.864;12.096;2022-09-09T12:23:00;2.80;;;1.13;;
11211;SDS011;5663;50.864;12.096;2022-09-09T12:25:48;2.13;;;1.20;;
11211;SDS011;5663;50.864;12.096;2022-09-09T12:28:46;3.75;;;1.27;;
11211;SDS011;5663;50.864;12.096;2022-09-09T12:31:41;3.90;;;1.42;;
11211;SDS011;5663;50.864;12.096;2022-09-09T12:35:18;3.47;;;1.10;;
11211;SDS011;5663;50.864;12.096;2022-09-09T12:38:25;3.88;;;1.30;;
11211;SDS011;5663;50.864;12.096;2022-09-09T12:41:00;2.55;;;1.10;;
11211;SDS011;5663;50.864;12.096;2022-09-09T12:43:33;7.00;;;1.65;;
11211;SDS011;5663;50.864;12.096;2022-09-09T12:46:29;20.90;;;2.30;;
11211;SDS011;5663;50.864;12.096;2022-09-09T12:53:10;4.78;;;1.17;;
11211;SDS011;5663;50.864;12.096;2022-09-09T12:55:54;3.13;;;1.23;;
11211;SDS011;5663;50.864;12.096;2022-09-09T13:01:36;3.88;;;1.20;;
11211;SDS011;5663;50.864;12.096;2022-09-09T13:04:20;4.30;;;1.10;;
11211;SDS011;5663;50.864;12.096;2022-09-09T13:10:59;3.03;;;1.20;;
11211;SDS011;5663;50.864;12.096;2022-09-09T13:13:41;2.92;;;0.90;;
11211;SDS011;5663;50.864;12.096;2022-09-09T13:16:26;5.80;;;1.20;;
11211;SDS011;5663;50.864;12.096;2022-09-09T13:23:22;8.48;;;1.10;;
11211;SDS011;5663;50.864;12.096;2022-09-09T13:26:04;4.20;;;1.38;;
11211;SDS011;5663;50.864;12.096;2022-09-09T13:28:48;3.15;;;1.00;;
11211;SDS011;5663;50.864;12.096;2022-09-09T13:31:22;6.63;;;1.30;;
11211;SDS011;5663;50.864;12.096;2022-09-09T13:35:23;4.68;;;1.40;;
11211;SDS011;5663;50.864;12.096;2022-09-09T13:38:06;8.20;;;1.30;;
11211;SDS011;5663;50.864;12.096;2022-09-09T13:40:38;2.78;;;1.10;;
11211;SDS011;5663;50.864;12.096;2022-09-09T13:43:20;4.15;;;1.30;;
11211;SDS011;5663;50.864;12.096;2022-09-09T13:45:57;2.03;;;1.20;;
11211;SDS011;5663;50.864;12.096;2022-09-09T13:48:32;3.65;;;1.17;;
11211;SDS011;5663;50.864;12.096;2022-09-09T14:50:35;7.07;;;1.02;;
11211;SDS011;5663;50.864;12.096;2022-09-09T14:53:21;3.75;;;1.13;;
11211;SDS011;5663;50.864;12.096;2022-09-09T14:56:53;2.47;;;1.00;;
11211;SDS011;5663;50.864;12.096;2022-09-09T14:59:34;1.58;;;0.95;;
11211;SDS011;5663;50.864;12.096;2022-09-09T15:02:26;3.67;;;0.90;;
11211;SDS011;5663;50.864;12.096;2022-09-09T15:05:02;8.85;;;1.17;;
11211;SDS011;5663;50.864;12.096;2022-09-09T15:07:47;1.38;;;0.50;;
11211;SDS011;5663;50.864;12.096;2022-09-09T15:10:46;5.82;;;0.80;;
11211;SDS011;5663;50.864;12.096;2022-09-09T15:27:32;0.88;;;0.57;;
11211;SDS011;5663;50.864;12.096;2022-09-09T15:30:38;20.83;;;2.13;;
11211;SDS011;5663;50.864;12.096;2022-09-09T15:33:25;1.48;;;0.60;;
11211;SDS011;5663;50.864;12.096;2022-09-09T15:35:57;3.17;;;0.93;;
11211;SDS011;5663;50.864;12.096;2022-09-09T15:39:08;2.00;;;0.98;;
11211;SDS011;5663;50.864;12.096;2022-09-09T15:41:59;2.30;;;0.80;;
11211;SDS011;5663;50.864;12.096;2022-09-09T15:55:54;3.15;;;0.82;;
11211;SDS011;5663;50.864;12.096;2022-09-09T15:58:48;1.20;;;0.60;;
11211;SDS011;5663;50.864;12.096;2022-09-09T16:01:28;9.10;;;1.40;;
11211;SDS011;5663;50.864;12.096;2022-09-09T16:04:34;0.80;;;0.47;;
11211;SDS011;5663;50.864;12.096;2022-09-09T16:07:32;4.90;;;1.00;;
11211;SDS011;5663;50.864;12.096;2022-09-09T16:10:09;1.13;;;0.60;;
11211;SDS011;5663;50.864;12.096;2022-09-09T16:12:40;11.38;;;1.42;;
11211;SDS011;5663;50.864;12.096;2022-09-09T16:15:21;2.10;;;0.95;;
11211;SDS011;5663;50.864;12.096;2022-09-09T16:21:49;2.20;;;0.95;;
11211;SDS011;5663;50.864;12.096;2022-09-09T16:24:29;9.90;;;1.25;;
11211;SDS011;5663;50.864;12.096;2022-09-09T16:27:18;3.90;;;1.13;;
11211;SDS011;5663;50.864;12.096;2022-09-09T16:30:32;1.23;;;0.80;;
11211;SDS011;5663;50.864;12.096;2022-09-09T16:33:27;1.05;;;0.73;;
11211;SDS011;5663;50.864;12.096;2022-09-09T16:36:39;10.63;;;1.77;;
11211;SDS011;5663;50.864;12.096;2022-09-09T16:43:10;2.75;;;0.95;;
11211;SDS011;5663;50.864;12.096;2022-09-09T16:45:53;7.30;;;1.35;;
11211;SDS011;5663;50.864;12.096;2022-09-09T16:48:36;4.97;;;1.05;;
11211;SDS011;5663;50.864;12.096;2022-09-09T17:53:07;1.73;;;1.20;;
11211;SDS011;5663;50.864;12.096;2022-09-09T17:55:49;8.53;;;1.50;;
11211;SDS011;5663;50.864;12.096;2022-09-09T17:58:23;11.65;;;1.60;;
11211;SDS011;5663;50.864;12.096;2022-09-09T18:00:56;4.40;;;1.70;;
11211;SDS011;5663;50.864;12.096;2022-09-09T18:03:54;8.13;;;2.67;;
11211;SDS011;5663;50.864;12.096;2022-09-09T18:06:56;3.20;;;2.07;;
11211;SDS011;5663;50.864;12.096;2022-09-09T18:10:00;4.67;;;2.70;;
11211;SDS011;5663;50.864;12.096;2022-09-09T18:45:50;4.03;;;1.50;;
11211;SDS011;5663;50.864;12.096;2022-09-09T18:48:35;2.20;;;1.30;;
11211;SDS011;5663;50.864;12.096;2022-09-09T19:55:51;2.80;;;1.83;;
11211;SDS011;5663;50.864;12.096;2022-09-09T19:58:50;2.90;;;1.70;;
11211;SDS011;5663;50.864;12.096;2022-09-09T20:01:32;3.73;;;1.70;;
11211;SDS011;5663;50.864;12.096;2022-09-09T20:04:14;2.40;;;1.80;;
11211;SDS011;5663;50.864;12.096;2022-09-09T20:10:30;2.40;;;1.80;;
11211;SDS011;5663;50.864;12.096;2022-09-09T20:13:43;3.90;;;1.63;;
11211;SDS011;5663;50.864;12.096;2022-09-09T20:16:23;1.80;;;1.50;;
11211;SDS011;5663;50.864;12.096;2022-09-09T20:19:09;2.43;;;1.50;;
11211;SDS011;5663;50.864;12.096;2022-09-09T20:25:42;1.50;;;1.40;;
11211;SDS011;5663;50.864;12.096;2022-09-09T20:28:36;1.93;;;1.47;;
11211;SDS011;5663;50.864;12.096;2022-09-09T20:31:21;2.00;;;1.70;;
11211;SDS011;5663;50.864;12.096;2022-09-09T20:34:17;2.93;;;1.50;;
11211;SDS011;5663;50.864;12.096;2022-09-09T20:37:16;3.23;;;1.57;;
11211;SDS011;5663;50.864;12.096;2022-09-09T20:40:10;3.03;;;1.40;;
11211;SDS011;5663;50.864;12.096;2022-09-09T20:43:21;1.73;;;1.40;;
11211;SDS011;5663;50.864;12.096;2022-09-09T20:46:00;2.47;;;1.33;;
11211;SDS011;5663;50.864;12.096;2022-09-09T20:48:39;7.00;;;1.60;;
11211;SDS011;5663;50.864;12.096;2022-09-09T20:51:23;4.57;;;1.60;;
11211;SDS011;5663;50.864;12.096;2022-09-09T20:54:09;4.37;;;1.47;;
11211;SDS011;5663;50.864;12.096;2022-09-09T20:56:55;1.33;;;1.23;;
11211;SDS011;5663;50.864;12.096;2022-09-09T20:59:56;3.93;;;1.20;;
11211;SDS011;5663;50.864;12.096;2022-09-09T21:02:37;5.10;;;1.20;;
11211;SDS011;5663;50.864;12.096;2022-09-09T21:09:20;1.80;;;1.23;;
11211;SDS011;5663;50.864;12.096;2022-09-09T21:11:50;4.57;;;1.40;;
11211;SDS011;5663;50.864;12.096;2022-09-09T21:14:25;3.80;;;1.47;;
11211;SDS011;5663;50.864;12.096;2022-09-09T21:17:12;1.53;;;1.23;;
11211;SDS011;5663;50.864;12.096;2022-09-09T21:23:27;1.57;;;1.30;;
11211;SDS011;5663;50.864;12.096;2022-09-09T21:26:39;2.70;;;1.40;;
11211;SDS011;5663;50.864;12.096;2022-09-09T21:29:25;3.17;;;1.23;;
11211;SDS011;5663;50.864;12.096;2022-09-09T21:32:03;1.67;;;1.33;;
11211;SDS011;5663;50.864;12.096;2022-09-09T21:34:59;3.47;;;1.57;;
11211;SDS011;5663;50.864;12.096;2022-09-09T21:38:04;3.33;;;1.90;;
11211;SDS011;5663;50.864;12.096;2022-09-09T21:40:45;1.93;;;1.20;;
11211;SDS011;5663;50.864;12.096;2022-09-09T21:43:32;2.23;;;1.70;;
11211;SDS011;5663;50.864;12.096;2022-09-09T21:46:08;1.27;;;1.07;;
11211;SDS011;5663;50.864;12.096;2022-09-09T21:48:49;3.97;;;1.40;;
11211;SDS011;5663;50.864;12.096;2022-09-09T21:51:41;2.10;;;1.33;;
11211;SDS011;5663;50.864;12.096;2022-09-09T22:57:33;2.40;;;1.27;;
11211;SDS011;5663;50.864;12.096;2022-09-09T23:00:15;3.20;;;1.30;;
11211;SDS011;5663;50.864;12.096;2022-09-09T23:03:09;3.03;;;1.67;;
11211;SDS011;5663;50.864;12.096;2022-09-09T23:05:59;1.53;;;1.40;;
11211;SDS011;5663;50.864;12.096;2022-09-09T23:11:33;1.67;;;1.40;;
11211;SDS011;5663;50.864;12.096;2022-09-09T23:14:14;3.63;;;1.57;;
11211;SDS011;5663;50.864;12.096;2022-09-09T23:17:07;5.03;;;2.00;;
11211;SDS011;5663;50.864;12.096;2022-09-09T23:20:06;2.77;;;1.70;;
11211;SDS011;5663;50.864;12.096;2022-09-09T23:22:39;3.63;;;1.57;;
11211;SDS011;5663;50.864;12.096;2022-09-09T23:25:11;2.43;;;1.70;;
11211;SDS011;5663;50.864;12.096;2022-09-09T23:27:48;2.83;;;1.80;;
11211;SDS011;5663;50.864;12.096;2022-09-09T23:37:53;6.13;;;2.07;;
11211;SDS011;5663;50.864;12.096;2022-09-09T23:47:50;1.57;;;1.47;;
11211;SDS011;5663;50.864;12.096;2022-09-09T23:50:22;4.70;;;1.70;;
11211;SDS011;5663;50.864;12.096;2022-09-09T23:52:55;3.53;;;1.63;;
11211;SDS011;5663;50.864;12.096;2022-09-09T23:55:33;3.50;;;1.60;;
11211;SDS011;5663;50.864;12.096;2022-09-09T23:58:15;3.53;;;2.00;;
